Main page
METAR-TAF:

METAR-TAF

Airports :

Ardabil Airport

Ardabil, Iran

latitude: 38-19-35N, longitude: 048-25-28E, elevation: 1315 m

Current weather observation

The report was made 6 hours and 12 minutes ago, at 15:00 UTC
Wind 12 kt from the South/Southwest
Temperature 2°C
Humidity 75%
Pressure 1017 hPa
Visibility 10 km or more
Few clouds at a height of 400 ft
Few clouds at a height of 3000 ft, Cumulonimbus.
Scattered clouds at a height of 8000 ft
Broken clouds at a height of 19000 ft

METAR: OITL 101500Z 21012KT 9999 FEW004 FEW030CB SCT080 BKN190 02/M02 Q1017

Time: 00:42 (21:12 UTC)


TAF: missing

Weather observations and forecasts of more than 4000 airports (METAR and TAF reports).

The available stations are represented by yellow and red dots on the map.

Hover mouse over dot to see the name of the station.

Then click to see weather observations and forecasts.

To change the map : click on the green buttons with a black cross to zoom in, on the green button with a dash to zoom out, or on the green arrows for adjacent maps.


METAR-TAF: